createdAt,value
2018-09-26T00:00:11.013Z,12.66
2018-09-26T00:02:46.877Z,12.58
2018-09-26T00:05:15.970Z,12.54
2018-09-26T00:07:44.185Z,12.61
2018-09-26T00:10:12.429Z,12.61
2018-09-26T00:12:40.662Z,12.59
2018-09-26T00:15:08.901Z,12.62
2018-09-26T00:17:37.213Z,12.62
2018-09-26T00:20:05.448Z,12.58
2018-09-26T00:22:33.722Z,12.55
2018-09-26T00:25:01.958Z,12.62
2018-09-26T00:27:30.173Z,12.69
2018-09-26T00:29:58.400Z,12.64
2018-09-26T00:32:26.601Z,12.66
2018-09-26T00:34:54.945Z,12.65
2018-09-26T00:37:23.193Z,12.71
2018-09-26T00:39:51.467Z,12.66
2018-09-26T00:42:19.705Z,12.64
2018-09-26T00:44:48.000Z,12.69
2018-09-26T00:47:16.219Z,12.72
2018-09-26T00:49:44.456Z,12.65
2018-09-26T00:52:12.676Z,12.72
2018-09-26T00:54:40.934Z,12.73
2018-09-26T00:57:09.184Z,12.75
2018-09-26T00:59:37.421Z,12.65
2018-09-26T01:02:05.665Z,12.72
2018-09-26T01:04:33.949Z,12.76
2018-09-26T01:07:02.164Z,12.74
2018-09-26T01:09:30.395Z,12.66
2018-09-26T01:11:58.653Z,12.70
2018-09-26T01:14:26.917Z,12.69
2018-09-26T01:16:55.125Z,12.69
2018-09-26T01:19:23.368Z,12.59
2018-09-26T01:21:51.581Z,12.52
2018-09-26T01:24:19.833Z,12.43
2018-09-26T01:26:48.053Z,12.39
2018-09-26T01:29:16.347Z,12.43
2018-09-26T01:31:44.613Z,12.43
2018-09-26T01:34:12.845Z,12.44
2018-09-26T01:36:41.065Z,12.49
2018-09-26T01:39:09.937Z,12.45
2018-09-26T01:41:38.244Z,12.33
2018-09-26T01:44:06.562Z,12.36
2018-09-26T01:46:34.781Z,12.46
2018-09-26T01:49:03.052Z,12.36
2018-09-26T01:51:31.293Z,12.37
2018-09-26T01:53:59.510Z,12.35
2018-09-26T01:56:27.738Z,12.27
2018-09-26T01:58:55.998Z,12.25
2018-09-26T02:01:24.263Z,12.29
2018-09-26T02:03:52.486Z,12.25
2018-09-26T02:06:20.721Z,12.25
2018-09-26T02:08:48.941Z,12.22
2018-09-26T02:11:17.214Z,12.24
2018-09-26T02:13:45.462Z,12.24
2018-09-26T02:16:13.705Z,12.21
2018-09-26T02:18:41.957Z,12.25
2018-09-26T02:21:10.188Z,12.25
2018-09-26T02:23:38.477Z,12.27
2018-09-26T02:26:06.694Z,12.20
2018-09-26T02:28:35.002Z,12.19
2018-09-26T02:31:03.248Z,12.25
2018-09-26T02:33:31.473Z,12.20
2018-09-26T02:35:59.714Z,12.15
2018-09-26T02:38:27.962Z,12.21
2018-09-26T02:40:56.214Z,12.12
2018-09-26T02:43:24.457Z,12.05
2018-09-26T02:45:52.709Z,12.01
2018-09-26T02:48:26.398Z,12.01
2018-09-26T02:50:54.685Z,12.03
2018-09-26T02:53:22.900Z,11.97
2018-09-26T02:55:51.226Z,12.01
2018-09-26T02:58:19.453Z,11.92
2018-09-26T03:00:47.693Z,11.89
2018-09-26T03:03:15.905Z,11.98
2018-09-26T03:05:44.178Z,11.97
2018-09-26T03:08:12.388Z,12.02
2018-09-26T03:10:40.620Z,11.94
2018-09-26T03:13:08.955Z,11.89
2018-09-26T03:15:37.246Z,11.94
2018-09-26T03:18:05.473Z,11.88
2018-09-26T03:20:33.720Z,11.94
2018-09-26T03:23:01.956Z,11.96
2018-09-26T03:25:30.192Z,11.92
2018-09-26T03:27:58.530Z,12.00
2018-09-26T03:30:26.766Z,12.05
2018-09-26T03:32:55.014Z,12.13
2018-09-26T03:35:23.249Z,12.13
2018-09-26T03:37:51.488Z,12.12
2018-09-26T03:40:19.732Z,12.12
2018-09-26T03:42:48.069Z,12.10
2018-09-26T03:45:16.329Z,12.09
2018-09-26T03:47:44.552Z,11.96
2018-09-26T03:50:12.775Z,11.77
2018-09-26T03:52:41.029Z,11.79
2018-09-26T03:55:09.261Z,11.73
2018-09-26T03:57:37.537Z,11.77
2018-09-26T04:00:05.809Z,11.84
2018-09-26T04:02:34.071Z,11.82
2018-09-26T04:05:02.409Z,11.88
2018-09-26T04:07:31.516Z,11.90
2018-09-26T04:09:59.765Z,11.98
2018-09-26T04:12:28.320Z,12.01
2018-09-26T04:14:56.525Z,12.03
2018-09-26T04:17:24.766Z,12.05
2018-09-26T04:19:52.999Z,12.06
2018-09-26T04:22:21.238Z,11.94
2018-09-26T04:24:49.467Z,11.87
2018-09-26T04:27:18.529Z,11.87
2018-09-26T04:29:46.703Z,11.80
2018-09-26T04:32:14.945Z,11.79
2018-09-26T04:34:43.167Z,11.77
2018-09-26T04:37:11.440Z,11.80
2018-09-26T04:39:39.660Z,11.83
2018-09-26T04:42:07.893Z,11.84
2018-09-26T04:44:36.129Z,11.89
2018-09-26T04:47:04.382Z,11.89
2018-09-26T04:49:32.635Z,11.91
2018-09-26T04:52:00.877Z,11.91
2018-09-26T04:54:29.101Z,11.92
2018-09-26T04:56:57.349Z,11.92
2018-09-26T04:59:25.592Z,11.81
2018-09-26T05:01:53.833Z,11.88
2018-09-26T05:04:22.057Z,11.88
2018-09-26T05:06:50.348Z,11.94
2018-09-26T05:09:18.600Z,11.95
2018-09-26T05:11:46.860Z,11.93
2018-09-26T05:14:15.086Z,11.92
2018-09-26T05:16:43.328Z,11.94
2018-09-26T05:19:11.589Z,11.91
2018-09-26T05:21:39.848Z,11.95
2018-09-26T05:24:08.636Z,12.06
2018-09-26T05:26:36.947Z,12.10
2018-09-26T05:29:05.178Z,12.21
2018-09-26T05:31:33.429Z,12.17
2018-09-26T05:34:01.661Z,12.19
2018-09-26T05:36:29.904Z,12.18
2018-09-26T05:38:58.154Z,12.17
2018-09-26T05:41:26.384Z,12.22
2018-09-26T05:43:54.693Z,12.21
2018-09-26T05:46:23.207Z,12.17
2018-09-26T05:48:51.513Z,12.17
2018-09-26T05:51:19.757Z,12.18
2018-09-26T05:53:48.064Z,12.18
2018-09-26T05:56:16.657Z,12.10
2018-09-26T05:58:44.921Z,12.16
2018-09-26T06:01:13.162Z,12.21
2018-09-26T06:03:42.233Z,12.20
2018-09-26T06:06:10.478Z,12.21
2018-09-26T06:08:38.729Z,12.22
2018-09-26T06:11:07.204Z,12.20
2018-09-26T06:13:35.533Z,12.25
2018-09-26T06:16:03.879Z,12.35
2018-09-26T06:18:32.190Z,12.37
2018-09-26T06:21:00.420Z,12.31
2018-09-26T06:23:28.669Z,12.38
2018-09-26T06:25:56.909Z,12.47
2018-09-26T06:28:25.316Z,12.49
2018-09-26T06:30:53.561Z,12.51
2018-09-26T06:33:21.825Z,12.54
2018-09-26T06:35:50.091Z,12.53
2018-09-26T06:38:18.401Z,12.50
2018-09-26T06:40:46.626Z,12.59
2018-09-26T06:43:14.877Z,12.60
2018-09-26T06:45:43.130Z,12.69
2018-09-26T06:48:11.442Z,12.75
2018-09-26T06:50:39.674Z,12.85
2018-09-26T06:53:07.979Z,12.87
2018-09-26T06:55:36.256Z,12.86
2018-09-26T06:58:04.533Z,12.93
2018-09-26T07:00:32.777Z,13.04
2018-09-26T07:03:01.082Z,12.98
2018-09-26T07:05:30.017Z,12.94
2018-09-26T07:07:58.269Z,13.02
2018-09-26T07:10:26.499Z,13.04
2018-09-26T07:12:54.856Z,13.17
2018-09-26T07:15:23.089Z,13.24
2018-09-26T07:17:51.681Z,13.29
2018-09-26T07:20:20.126Z,13.73
2018-09-26T07:22:48.437Z,13.67
2018-09-26T07:25:16.736Z,13.54
2018-09-26T07:27:45.031Z,13.47
2018-09-26T07:30:13.274Z,13.51
2018-09-26T07:32:41.518Z,13.46
2018-09-26T07:35:09.782Z,13.57
2018-09-26T07:37:38.008Z,13.47
2018-09-26T07:40:06.609Z,13.50
2018-09-26T07:42:34.880Z,13.62
2018-09-26T07:45:03.132Z,13.81
2018-09-26T07:47:31.529Z,13.75
2018-09-26T07:49:59.838Z,13.87
2018-09-26T07:52:28.077Z,13.96
2018-09-26T07:54:56.321Z,13.99
2018-09-26T07:57:24.625Z,13.99
2018-09-26T07:59:53.030Z,14.08
2018-09-26T08:02:21.231Z,14.13
2018-09-26T08:04:49.488Z,14.29
2018-09-26T08:07:17.840Z,14.38
2018-09-26T08:09:46.110Z,14.33
2018-09-26T08:12:14.361Z,14.43
2018-09-26T08:14:42.647Z,14.39
2018-09-26T08:17:10.894Z,14.52
2018-09-26T08:19:39.164Z,14.63
2018-09-26T08:22:07.411Z,14.44
2018-09-26T08:24:35.675Z,14.43
2018-09-26T08:27:03.990Z,14.34
2018-09-26T08:29:32.258Z,14.43
2018-09-26T08:32:00.522Z,14.55
2018-09-26T08:34:28.797Z,14.58
2018-09-26T08:36:57.026Z,14.73
2018-09-26T08:39:26.489Z,14.74
2018-09-26T08:41:54.738Z,14.68
2018-09-26T08:44:22.992Z,14.76
2018-09-26T08:46:51.232Z,14.76
2018-09-26T08:49:19.473Z,14.83
2018-09-26T08:51:47.705Z,14.90
2018-09-26T08:54:16.009Z,14.95
2018-09-26T08:56:44.229Z,14.97
2018-09-26T08:59:12.533Z,15.06
2018-09-26T09:01:44.837Z,15.15
2018-09-26T09:04:13.176Z,15.18
2018-09-26T09:06:41.408Z,15.16
2018-09-26T09:09:09.730Z,15.25
2018-09-26T09:11:38.263Z,15.33
2018-09-26T09:14:06.791Z,15.34
2018-09-26T09:16:35.223Z,15.53
2018-09-26T09:19:03.498Z,15.73
2018-09-26T09:21:31.788Z,15.70
2018-09-26T09:24:00.065Z,15.71
2018-09-26T09:26:28.290Z,15.64
2018-09-26T09:28:56.673Z,15.84
2018-09-26T09:31:24.930Z,15.99
2018-09-26T09:33:53.167Z,15.98
2018-09-26T09:36:21.446Z,16.03
2018-09-26T09:38:49.693Z,16.15
2018-09-26T09:41:18.018Z,16.31
2018-09-26T09:43:46.260Z,16.41
2018-09-26T09:46:14.517Z,16.57
2018-09-26T09:48:42.754Z,16.68
2018-09-26T09:51:11.005Z,16.71
2018-09-26T09:53:39.261Z,16.73
2018-09-26T09:56:07.634Z,16.79
2018-09-26T09:58:35.847Z,16.67
2018-09-26T10:01:09.412Z,16.82
2018-09-26T10:03:37.656Z,16.92
2018-09-26T10:06:05.913Z,17.14
2018-09-26T10:08:34.206Z,17.30
2018-09-26T10:11:02.409Z,17.42
2018-09-26T10:13:31.085Z,17.47
2018-09-26T10:15:59.338Z,17.56
2018-09-26T10:18:27.613Z,17.67
2018-09-26T10:20:55.852Z,17.68
2018-09-26T10:23:24.109Z,17.75
2018-09-26T10:25:52.360Z,17.69
2018-09-26T10:28:20.577Z,17.69
2018-09-26T10:30:48.834Z,17.74
2018-09-26T10:33:17.053Z,17.72
2018-09-26T10:35:45.289Z,17.76
2018-09-26T10:38:13.548Z,17.89
2018-09-26T10:40:41.867Z,17.93
2018-09-26T10:43:10.077Z,17.82
2018-09-26T10:45:38.363Z,17.78
2018-09-26T10:48:06.703Z,17.76
2018-09-26T10:50:35.011Z,17.85
2018-09-26T10:53:03.403Z,17.88
2018-09-26T10:55:31.761Z,17.97
2018-09-26T10:58:00.002Z,17.86
2018-09-26T11:00:28.231Z,17.78
2018-09-26T11:02:56.490Z,17.69
2018-09-26T11:05:24.710Z,17.75
2018-09-26T11:07:52.953Z,17.77
2018-09-26T11:10:21.245Z,17.95
2018-09-26T11:12:50.058Z,18.04
2018-09-26T11:15:18.349Z,18.02
2018-09-26T11:17:46.753Z,17.99
2018-09-26T11:20:15.073Z,18.15
2018-09-26T11:22:43.409Z,18.19
2018-09-26T11:25:11.707Z,18.10
2018-09-26T11:27:39.965Z,18.24
2018-09-26T11:30:08.269Z,18.44
2018-09-26T11:32:36.522Z,18.52
2018-09-26T11:35:04.761Z,18.45
2018-09-26T11:37:33.011Z,18.68
2018-09-26T11:40:01.289Z,18.36
2018-09-26T11:42:29.764Z,18.33
2018-09-26T11:44:58.018Z,18.24
2018-09-26T11:47:26.296Z,18.38
2018-09-26T11:50:01.158Z,18.47
2018-09-26T11:52:29.418Z,18.55
2018-09-26T11:54:57.690Z,18.72
2018-09-26T11:57:25.989Z,18.73
2018-09-26T11:59:54.246Z,18.87
2018-09-26T12:02:22.555Z,18.68
2018-09-26T12:04:50.746Z,18.69
2018-09-26T12:07:19.062Z,18.96
2018-09-26T12:09:48.215Z,19.14
2018-09-26T12:12:16.516Z,19.14
2018-09-26T12:14:44.852Z,18.97
2018-09-26T12:17:13.146Z,18.84
2018-09-26T12:19:41.425Z,18.99
2018-09-26T12:22:09.749Z,19.02
2018-09-26T12:24:37.937Z,19.25
2018-09-26T12:27:06.283Z,19.22
2018-09-26T12:29:34.863Z,19.24
2018-09-26T12:32:03.149Z,19.23
2018-09-26T12:34:31.409Z,19.19
2018-09-26T12:36:59.789Z,19.21
2018-09-26T12:39:28.062Z,19.41
2018-09-26T12:41:56.305Z,19.45
2018-09-26T12:44:24.557Z,19.52
2018-09-26T12:46:52.794Z,19.61
2018-09-26T12:49:21.066Z,19.59
2018-09-26T12:51:49.314Z,19.74
2018-09-26T12:54:17.578Z,19.72
2018-09-26T12:56:45.858Z,19.64
2018-09-26T12:59:14.116Z,19.83
2018-09-26T13:01:42.349Z,19.79
2018-09-26T13:04:10.618Z,19.98
2018-09-26T13:06:38.890Z,20.19
2018-09-26T13:09:07.278Z,20.16
2018-09-26T13:11:35.526Z,20.28
2018-09-26T13:14:03.861Z,20.22
2018-09-26T13:16:32.145Z,20.16
2018-09-26T13:19:00.467Z,20.23
2018-09-26T13:21:28.657Z,20.30
2018-09-26T13:23:56.914Z,20.02
2018-09-26T13:26:26.043Z,20.14
2018-09-26T13:28:54.157Z,20.15
2018-09-26T13:31:22.421Z,20.02
2018-09-26T13:33:50.654Z,20.11
2018-09-26T13:36:18.975Z,20.23
2018-09-26T13:38:47.215Z,20.16
2018-09-26T13:41:15.484Z,20.10
2018-09-26T13:43:43.717Z,20.02
2018-09-26T13:46:12.084Z,20.12
2018-09-26T13:48:40.269Z,20.27
2018-09-26T13:51:08.517Z,20.16
2018-09-26T13:53:36.761Z,20.17
2018-09-26T13:56:05.023Z,20.12
2018-09-26T13:58:33.269Z,20.23
2018-09-26T14:01:01.800Z,20.28
2018-09-26T14:03:30.059Z,20.29
2018-09-26T14:05:58.320Z,20.38
2018-09-26T14:08:26.560Z,20.30
2018-09-26T14:10:54.839Z,20.45
2018-09-26T14:13:23.115Z,20.48
2018-09-26T14:15:51.352Z,20.52
2018-09-26T14:18:19.676Z,20.41
2018-09-26T14:21:04.699Z,20.40
2018-09-26T14:23:33.163Z,20.35
2018-09-26T14:26:01.601Z,20.14
2018-09-26T14:28:30.105Z,20.07
2018-09-26T14:30:58.605Z,20.20
2018-09-26T14:33:27.872Z,20.03
2018-09-26T14:35:56.292Z,20.07
2018-09-26T14:38:24.834Z,19.99
2018-09-26T14:40:53.377Z,19.88
2018-09-26T14:43:21.846Z,20.03
2018-09-26T14:45:50.422Z,20.19
2018-09-26T14:48:18.822Z,20.00
2018-09-26T14:50:48.129Z,19.77
2018-09-26T14:53:16.672Z,19.80
2018-09-26T14:55:45.096Z,19.88
2018-09-26T14:58:13.612Z,20.02
2018-09-26T15:00:42.002Z,20.03
2018-09-26T15:03:10.445Z,20.05
2018-09-26T15:05:38.922Z,20.10
2018-09-26T15:08:07.373Z,20.16
2018-09-26T15:10:35.909Z,20.10
2018-09-26T15:13:04.326Z,20.08
2018-09-26T15:15:32.758Z,20.01
2018-09-26T15:18:01.213Z,19.98
2018-09-26T15:20:29.643Z,20.00
2018-09-26T15:22:58.046Z,19.81
2018-09-26T15:25:26.476Z,19.70
2018-09-26T15:27:55.021Z,19.70
2018-09-26T15:30:23.505Z,19.81
2018-09-26T15:32:51.909Z,19.83
2018-09-26T15:35:20.403Z,19.75
2018-09-26T15:37:49.021Z,19.85
2018-09-26T15:40:17.553Z,19.85
2018-09-26T15:42:45.897Z,19.81
2018-09-26T15:45:14.336Z,19.73
2018-09-26T15:47:42.764Z,19.84
2018-09-26T15:50:11.425Z,19.99
2018-09-26T15:52:39.866Z,19.98
2018-09-26T15:55:08.309Z,20.01
2018-09-26T15:57:37.072Z,20.09
2018-09-26T16:00:05.778Z,19.98
2018-09-26T16:02:34.109Z,19.97
2018-09-26T16:05:19.162Z,20.00
2018-09-26T16:07:47.868Z,19.97
2018-09-26T16:10:16.145Z,19.92
2018-09-26T16:12:45.448Z,19.86
2018-09-26T16:15:13.733Z,19.91
2018-09-26T16:17:42.051Z,19.86
2018-09-26T16:20:10.297Z,19.72
2018-09-26T16:22:38.570Z,19.79
2018-09-26T16:25:06.805Z,19.80
2018-09-26T16:27:35.121Z,19.76
2018-09-26T16:30:03.446Z,19.66
2018-09-26T16:32:31.722Z,19.61
2018-09-26T16:35:00.011Z,19.61
2018-09-26T16:37:28.258Z,19.62
2018-09-26T16:39:56.525Z,19.59
2018-09-26T16:42:24.825Z,19.56
2018-09-26T16:44:53.063Z,19.54
2018-09-26T16:47:21.325Z,19.53
2018-09-26T16:49:49.578Z,19.51
2018-09-26T16:52:17.873Z,19.51
2018-09-26T16:54:46.189Z,19.44
2018-09-26T16:57:14.451Z,19.45
2018-09-26T16:59:42.684Z,19.41
2018-09-26T17:02:11.020Z,19.37
2018-09-26T17:04:39.234Z,19.40
2018-09-26T17:07:07.535Z,19.43
2018-09-26T17:09:35.811Z,19.38
2018-09-26T17:12:04.093Z,19.32
2018-09-26T17:14:32.367Z,19.36
2018-09-26T17:17:00.613Z,19.34
2018-09-26T17:19:28.946Z,19.28
2018-09-26T17:21:57.230Z,19.23
2018-09-26T17:24:25.578Z,19.19
2018-09-26T17:26:53.766Z,19.22
2018-09-26T17:29:22.065Z,19.15
2018-09-26T17:31:50.313Z,19.12
2018-09-26T17:34:19.048Z,19.00
2018-09-26T17:36:47.293Z,18.98
2018-09-26T17:39:15.553Z,18.99
2018-09-26T17:41:43.792Z,19.02
2018-09-26T17:44:12.057Z,18.99
2018-09-26T17:46:40.313Z,19.00
2018-09-26T17:49:08.643Z,19.00
2018-09-26T17:51:36.851Z,19.03
2018-09-26T17:54:05.123Z,19.04
2018-09-26T17:56:33.377Z,18.99
2018-09-26T17:59:01.645Z,19.10
2018-09-26T18:01:29.942Z,19.16
2018-09-26T18:03:58.322Z,19.24
2018-09-26T18:06:26.616Z,19.35
2018-09-26T18:08:54.896Z,19.35
2018-09-26T18:11:23.145Z,19.41
2018-09-26T18:13:51.437Z,19.47
2018-09-26T18:16:19.734Z,19.53
2018-09-26T18:18:48.063Z,19.53
2018-09-26T18:21:16.305Z,19.57
2018-09-26T18:23:44.596Z,19.56
2018-09-26T18:26:12.873Z,19.59
2018-09-26T18:28:41.150Z,19.60
2018-09-26T18:31:09.480Z,19.59
2018-09-26T18:33:37.814Z,19.58
2018-09-26T18:36:06.003Z,19.59
2018-09-26T18:38:34.808Z,19.55
2018-09-26T18:41:03.076Z,19.58
2018-09-26T18:43:31.364Z,19.55
2018-09-26T18:45:59.658Z,19.55
2018-09-26T18:48:27.930Z,19.58
2018-09-26T18:50:56.879Z,19.59
2018-09-26T18:53:25.508Z,19.57
2018-09-26T18:55:53.663Z,19.60
2018-09-26T18:58:21.933Z,19.60
2018-09-26T19:00:50.230Z,19.55
2018-09-26T19:03:18.521Z,19.55
2018-09-26T19:05:46.782Z,19.49
2018-09-26T19:08:15.043Z,19.54
2018-09-26T19:10:43.718Z,19.55
2018-09-26T19:13:12.011Z,19.59
2018-09-26T19:15:40.281Z,19.55
2018-09-26T19:18:08.574Z,19.55
2018-09-26T19:20:36.878Z,19.55
2018-09-26T19:23:05.173Z,19.55
2018-09-26T19:25:33.453Z,19.53
2018-09-26T19:28:01.712Z,19.51
2018-09-26T19:30:30.009Z,19.43
2018-09-26T19:32:58.309Z,19.46
2018-09-26T19:35:26.590Z,19.45
2018-09-26T19:37:54.873Z,19.46
2018-09-26T19:40:23.146Z,19.35
2018-09-26T19:42:51.445Z,19.29
2018-09-26T19:45:19.754Z,19.19
2018-09-26T19:47:48.023Z,19.24
2018-09-26T19:50:16.320Z,19.24
2018-09-26T19:52:44.566Z,19.14
2018-09-26T19:55:12.854Z,19.11
2018-09-26T19:57:41.130Z,19.10
2018-09-26T20:00:09.421Z,19.07
2018-09-26T20:02:37.710Z,19.09
2018-09-26T20:05:06.297Z,19.08
2018-09-26T20:07:34.535Z,19.08
2018-09-26T20:10:02.842Z,19.06
2018-09-26T20:12:31.162Z,19.08
2018-09-26T20:14:59.464Z,19.07
2018-09-26T20:17:27.772Z,19.00
2018-09-26T20:19:56.077Z,18.95
2018-09-26T20:22:24.341Z,18.93
2018-09-26T20:24:52.701Z,18.98
2018-09-26T20:27:21.952Z,19.00
2018-09-26T20:29:50.227Z,18.97
2018-09-26T20:32:18.464Z,19.02
2018-09-26T20:34:47.454Z,18.97
2018-09-26T20:37:16.290Z,18.94
2018-09-26T20:39:45.350Z,18.94
2018-09-26T20:42:13.984Z,18.91
2018-09-26T20:44:42.895Z,18.85
2018-09-26T20:47:11.567Z,18.93
2018-09-26T20:49:40.559Z,19.05
2018-09-26T20:52:09.583Z,19.11
2018-09-26T20:54:38.573Z,19.03
2018-09-26T20:57:07.461Z,19.04
2018-09-26T20:59:35.777Z,19.05
2018-09-26T21:02:04.384Z,19.08
2018-09-26T21:04:32.693Z,18.92
2018-09-26T21:07:00.985Z,18.89
2018-09-26T21:09:29.341Z,18.95
2018-09-26T21:11:57.676Z,18.95
2018-09-26T21:14:25.955Z,18.89
2018-09-26T21:16:54.223Z,18.88
2018-09-26T21:19:22.496Z,18.77
2018-09-26T21:21:50.789Z,18.78
2018-09-26T21:24:19.193Z,18.76
2018-09-26T21:26:47.522Z,18.76
2018-09-26T21:29:16.295Z,18.74
2018-09-26T21:31:44.607Z,18.75
2018-09-26T21:34:12.869Z,18.78
2018-09-26T21:36:41.157Z,18.82
2018-09-26T21:39:09.595Z,18.76
2018-09-26T21:41:37.781Z,18.75
2018-09-26T21:44:06.117Z,18.65
2018-09-26T21:46:34.381Z,18.67
2018-09-26T21:49:03.114Z,18.70
2018-09-26T21:51:31.470Z,18.71
2018-09-26T21:53:59.718Z,18.72
2018-09-26T21:56:28.002Z,18.77
2018-09-26T21:58:56.273Z,18.73
2018-09-26T22:01:28.710Z,18.70
2018-09-26T22:03:56.954Z,18.71
2018-09-26T22:06:25.377Z,18.76
2018-09-26T22:08:53.649Z,18.78
2018-09-26T22:11:22.581Z,18.78
2018-09-26T22:13:50.842Z,18.74
2018-09-26T22:16:19.124Z,18.76
2018-09-26T22:18:47.375Z,18.76
2018-09-26T22:21:15.680Z,18.70
2018-09-26T22:23:43.926Z,18.70
2018-09-26T22:26:12.193Z,18.71
2018-09-26T22:28:40.457Z,18.61
2018-09-26T22:31:08.741Z,18.53
2018-09-26T22:33:37.694Z,18.53
2018-09-26T22:36:05.694Z,18.49
2018-09-26T22:38:33.954Z,18.47
2018-09-26T22:41:02.229Z,18.48
2018-09-26T22:43:30.477Z,18.43
2018-09-26T22:45:58.753Z,18.49
2018-09-26T22:48:27.046Z,18.65
2018-09-26T22:50:55.335Z,18.60
2018-09-26T22:53:24.416Z,18.65
2018-09-26T22:55:52.652Z,18.64
2018-09-26T22:58:20.929Z,18.66
2018-09-26T23:00:49.177Z,18.61
2018-09-26T23:03:17.435Z,18.67
2018-09-26T23:05:45.685Z,18.73
2018-09-26T23:08:13.962Z,18.69
2018-09-26T23:10:42.234Z,18.69
2018-09-26T23:13:10.506Z,18.65
2018-09-26T23:24:10.225Z,18.70
2018-09-26T23:26:38.489Z,18.75
2018-09-26T23:29:06.805Z,18.76
2018-09-26T23:31:35.081Z,18.80
2018-09-26T23:34:03.410Z,18.84
2018-09-26T23:36:31.694Z,18.87
2018-09-26T23:39:00.011Z,18.93
2018-09-26T23:41:28.346Z,18.89
2018-09-26T23:43:56.645Z,18.79
2018-09-26T23:46:24.918Z,18.76
2018-09-26T23:48:53.226Z,18.75
2018-09-26T23:51:21.493Z,18.83
2018-09-26T23:53:49.781Z,18.76
2018-09-26T23:56:18.083Z,18.70
2018-09-26T23:58:46.362Z,18.64
